Main page
METAR-TAF:

METAR-TAF

Airports :

Örnsköldsvik Airport

Örnsköldsvik, Sweden

latitude: 63-24N, longitude: 018-58E, elevation: 103 m

Current weather observation

The report was made 34 minutes ago, at 11:20 UTC
Wind 5 kt from the East, varying between East/Northeast and Southeast
Temperature 17°C
Humidity 59%
Pressure 1011 hPa
Visibility 10 km or more

METAR: ESNO 231120Z AUTO 10005KT 060V140 9999 SCT076/// BKN120/// 17/09 Q1011

Time: 13:54 (11:54 UTC)

Forecast

The report was made 2 hours and 24 minutes ago, at 09:30 UTC
Forecast valid from 23 at 10 UTC to 23 at 18 UTC
Wind 6 kt from the East
Visibility 10 km or more
no clouds below 1500 m and no cumulonimbus
Probability 40%
from 23 at 12 UTC to 23 at 14 UTC
rain,

TAF: ESNO 230930Z 2310/2318 09006KT CAVOK PROB40 2312/2314 RA

Weather observations and forecasts of more than 4000 airports (METAR and TAF reports).

The available stations are represented by yellow and red dots on the map.

Hover mouse over dot to see the name of the station.

Then click to see weather observations and forecasts.

To change the map : click on the green buttons with a black cross to zoom in, on the green button with a dash to zoom out, or on the green arrows for adjacent maps.


METAR-TAF: